Athens, Georgia
Current Conditions -  °F | °C
As of 11:51 AM on Friday 21 Nov 2014 (Local Time) from KAHN Reporting Station
Haze Haze  
Wind Chill: 60°   Ceiling: Unl
Heat Index: 60°   Visibility: 5mi
Dew Point: 26°   Wind: 5mph
Humidity: 27%   Direction: NA
Pressure: 30.39"   Gusts: NA
Location:  33.96°N, 83.37°W
Report Text: KAHN 211651Z AUTO VRB04KT 5SM HZ CLR 16/M03 A3039 RMK AO2 SLPNO T01561033 TSNO
Loading
Personal Weather Stations






























Interactive Weather Map New forecast layout! Learn more

10-Day Weather Forecast

Advertisements
Track Severe Weather on mobile